Portada
METAR-TAF:

METAR-TAF

Aeroports :

Aeroport de Cherif Al Idrissi

Al Hoceima, Marroc

latitud: 35-11N, longitud: 003-51W, altitud: 27 m

Observació

L'informe es va fer fa 32 minuts, a les 07:00 UTC
Vent 6 kt del Nord/Nord-Oest
Temperatura 22°C
Humitat 94%
Pressió 1016 hPa
Visibilitat: 4000 m
Cel cobert a una alçada de 1000 ft
boirina

METAR: GMTA 250700Z 34006KT 4000 BR OVC010 22/21 Q1016 NOSIG

Hora: 08:32 (07:32 UTC)

Pronòstic

L'informe es va fer fa 2 hores i 32 minuts, a les 05:00 UTC
Pronòstic vàlid del 25 a les 06 UTC al 26 a les 12 UTC
Vent 10 kt del Nord-Oest
Visibilitat: 4000 m
Cel cobert a una alçada de 1000 ft
boirina
Evolucionant progressivament
l' 25 a les 06 UTC al 25 a les 09 UTC
Visibilitat: 8000 m
Evolucionant progressivament
l' 25 a les 17 UTC al 25 a les 21 UTC
Núvols disperses a una alçada de 1300 ft

TAF: GMTA 250500Z 2506/2612 32010KT 4000 BR OVC010 BECMG 2506/2509 8000 NSW BECMG 2517/2521 SCT013

Observacions i pronòstics meteorològics de més de 4000 aeroports (METAR i TAF).

Les estacions disponibles són els punts grocs i vermells al mapa.

Posi el ratolí al punt desitjat per veure el nom de l'estació.

Feu clic per veure les observacions i els pronòstics meteorològics.

Per canviar el mapa: feu clic els botons verds amb una creu de color negre per apropar; al botó verd amb un guió per allunyar la imatge; o en les fletxes verdes per a mapes adjacents.


METAR-TAF: